createdAt,value
2022-08-22T00:01:48.419Z,4.35
2022-08-22T00:02:45.057Z,2.50
2022-08-22T00:02:49.934Z,4.53
2022-08-22T00:02:57.844Z,4.70
2022-08-22T00:04:28.869Z,4.65
2022-08-22T00:07:10.218Z,4.25
2022-08-22T00:09:51.244Z,5.00
2022-08-22T00:12:30.404Z,4.13
2022-08-22T00:15:06.361Z,4.40
2022-08-22T00:17:46.091Z,4.43
2022-08-22T00:20:26.102Z,4.40
2022-08-22T00:23:01.891Z,4.25
2022-08-22T00:25:50.273Z,4.00
2022-08-22T00:28:25.625Z,4.45
2022-08-22T00:31:11.827Z,3.53
2022-08-22T00:33:47.901Z,4.45
2022-08-22T00:36:28.461Z,5.07
2022-08-22T00:39:13.122Z,4.43
2022-08-22T00:42:11.011Z,4.32
2022-08-22T00:45:03.023Z,4.15
2022-08-22T00:47:58.100Z,4.28
2022-08-22T00:51:01.559Z,4.30
2022-08-22T00:53:51.875Z,4.13
2022-08-22T00:56:51.075Z,4.70
2022-08-22T00:59:52.815Z,4.45
2022-08-22T01:02:40.825Z,3.95
2022-08-22T01:05:28.420Z,4.60
2022-08-22T01:08:18.201Z,5.03
2022-08-22T01:11:13.836Z,4.80
2022-08-22T01:14:00.064Z,4.68
2022-08-22T01:16:54.746Z,4.97
2022-08-22T01:20:09.690Z,4.20
2022-08-22T01:23:13.653Z,5.20
2022-08-22T01:26:20.256Z,4.60
2022-08-22T01:29:28.490Z,5.57
2022-08-22T01:32:37.104Z,4.80
2022-08-22T01:35:18.554Z,4.80
2022-08-22T01:38:16.333Z,4.57
2022-08-22T01:41:18.632Z,4.50
2022-08-22T01:44:14.581Z,4.78
2022-08-22T01:46:54.555Z,4.88
2022-08-22T01:49:29.161Z,4.53
2022-08-22T01:52:08.757Z,4.90
2022-08-22T01:54:47.704Z,4.57
2022-08-22T01:57:19.416Z,5.28
2022-08-22T01:59:52.904Z,4.93
2022-08-22T02:02:53.019Z,5.20
2022-08-22T02:05:31.842Z,4.78
2022-08-22T02:08:09.519Z,5.18
2022-08-22T02:10:53.290Z,5.18
2022-08-22T02:13:36.039Z,5.00
2022-08-22T02:16:14.865Z,5.40
2022-08-22T02:18:56.978Z,5.10
2022-08-22T02:21:42.152Z,5.18
2022-08-22T02:24:27.537Z,5.05
2022-08-22T02:27:09.367Z,4.70
2022-08-22T02:29:45.185Z,5.13
2022-08-22T02:32:23.229Z,4.82
2022-08-22T02:35:03.626Z,5.22
2022-08-22T02:37:40.054Z,5.60
2022-08-22T02:40:18.668Z,5.45
2022-08-22T02:42:58.261Z,5.22
2022-08-22T02:45:38.998Z,5.38
2022-08-22T02:48:17.750Z,5.90
2022-08-22T02:50:57.022Z,5.70
2022-08-22T02:53:39.805Z,5.57
2022-08-22T02:56:16.912Z,5.65
2022-08-22T02:58:59.201Z,5.70
2022-08-22T03:01:42.865Z,6.28
2022-08-22T03:04:26.178Z,5.25
2022-08-22T03:07:20.226Z,5.50
2022-08-22T03:09:59.434Z,6.25
2022-08-22T03:12:35.986Z,5.70
2022-08-22T03:15:14.583Z,5.50
2022-08-22T03:17:53.746Z,5.90
2022-08-22T03:20:43.071Z,5.75
2022-08-22T03:23:19.394Z,5.95
2022-08-22T03:25:57.274Z,6.20
2022-08-22T03:28:37.176Z,6.38
2022-08-22T03:31:15.801Z,6.60
2022-08-22T03:33:46.267Z,7.00
2022-08-22T03:36:30.481Z,7.20
2022-08-22T03:39:17.543Z,6.68
2022-08-22T03:42:20.573Z,6.97
2022-08-22T03:45:15.818Z,6.93
2022-08-22T03:48:15.006Z,6.63
2022-08-22T03:51:17.774Z,6.25
2022-08-22T03:54:14.932Z,6.25
2022-08-22T03:57:08.957Z,6.38
2022-08-22T04:00:04.735Z,6.77
2022-08-22T04:03:07.747Z,5.80
2022-08-22T04:06:12.724Z,5.85
2022-08-22T04:09:06.658Z,5.80
2022-08-22T04:12:08.829Z,5.95
2022-08-22T04:15:06.095Z,5.03
2022-08-22T04:18:05.825Z,5.70
2022-08-22T04:21:08.077Z,6.13
2022-08-22T04:24:04.787Z,6.55
2022-08-22T04:26:43.751Z,6.28
2022-08-22T04:29:21.294Z,6.93
2022-08-22T04:31:59.768Z,7.22
2022-08-22T04:34:37.262Z,6.43
2022-08-22T04:37:16.999Z,5.40
2022-08-22T04:39:53.468Z,6.00
2022-08-22T04:42:33.069Z,6.45
2022-08-22T04:45:08.484Z,5.80
2022-08-22T04:47:49.716Z,6.03
2022-08-22T04:50:28.668Z,5.72
2022-08-22T04:53:20.545Z,5.97
2022-08-22T04:56:02.035Z,5.72
2022-08-22T04:58:46.982Z,6.22
2022-08-22T05:01:20.476Z,5.80
2022-08-22T05:03:58.509Z,5.68
2022-08-22T05:06:31.877Z,5.72
2022-08-22T05:09:05.917Z,5.63
2022-08-22T05:11:37.400Z,5.40
2022-08-22T05:14:12.221Z,4.95
2022-08-22T05:16:45.632Z,5.30
2022-08-22T05:19:29.611Z,5.87
2022-08-22T05:22:02.559Z,5.65
2022-08-22T05:24:36.343Z,5.97
2022-08-22T05:27:14.524Z,5.45
2022-08-22T05:29:48.692Z,5.15
2022-08-22T05:32:24.653Z,5.28
2022-08-22T05:35:01.748Z,5.07
2022-08-22T05:37:39.802Z,5.97
2022-08-22T05:40:14.575Z,5.15
2022-08-22T05:42:46.801Z,5.15
2022-08-22T05:45:19.597Z,5.45
2022-08-22T05:47:54.098Z,4.95
2022-08-22T05:50:34.911Z,5.18
2022-08-22T05:53:10.036Z,4.85
2022-08-22T05:55:49.533Z,4.85
2022-08-22T05:58:48.659Z,4.70
2022-08-22T06:01:27.636Z,4.93
2022-08-22T06:04:08.343Z,5.00
2022-08-22T06:06:43.986Z,5.43
2022-08-22T06:09:22.230Z,5.07
2022-08-22T06:12:00.326Z,4.75
2022-08-22T06:14:40.656Z,5.03
2022-08-22T06:17:16.830Z,4.85
2022-08-22T06:19:50.939Z,5.40
2022-08-22T06:22:27.588Z,5.10
2022-08-22T06:25:02.633Z,5.20
2022-08-22T06:27:33.615Z,4.65
2022-08-22T06:30:05.281Z,5.13
2022-08-22T06:32:49.482Z,5.45
2022-08-22T06:35:54.393Z,7.68
2022-08-22T06:38:33.265Z,7.82
2022-08-22T06:41:07.108Z,9.68
2022-08-22T06:43:41.971Z,9.88
2022-08-22T06:46:13.523Z,6.57
2022-08-22T06:48:43.811Z,5.55
2022-08-22T06:51:16.054Z,5.88
2022-08-22T06:53:53.651Z,5.40
2022-08-22T06:56:27.147Z,6.03
2022-08-22T06:58:59.977Z,4.50
2022-08-22T07:01:33.836Z,5.18
2022-08-22T07:04:08.902Z,4.65
2022-08-22T07:06:42.037Z,5.47
2022-08-22T07:09:22.711Z,5.30
2022-08-22T07:11:54.344Z,5.22
2022-08-22T07:14:31.371Z,4.70
2022-08-22T07:17:04.636Z,5.40
2022-08-22T07:19:36.942Z,5.50
2022-08-22T07:22:16.048Z,5.57
2022-08-22T07:24:54.097Z,5.55
2022-08-22T07:27:37.531Z,6.20
2022-08-22T07:30:11.273Z,5.63
2022-08-22T07:32:51.812Z,5.05
2022-08-22T07:35:25.303Z,5.13
2022-08-22T07:38:02.205Z,4.60
2022-08-22T07:40:39.688Z,5.15
2022-08-22T07:43:22.620Z,4.90
2022-08-22T07:45:57.077Z,4.80
2022-08-22T07:48:29.778Z,4.63
2022-08-22T07:51:04.321Z,5.18
2022-08-22T07:53:42.070Z,5.28
2022-08-22T07:56:17.178Z,5.78
2022-08-22T07:58:51.487Z,4.97
2022-08-22T08:03:57.168Z,4.13
2022-08-22T08:06:28.797Z,3.95
2022-08-22T08:08:59.646Z,4.40
2022-08-22T08:11:38.915Z,4.20
2022-08-22T08:14:13.640Z,3.90
2022-08-22T08:16:48.126Z,4.13
2022-08-22T08:19:21.399Z,4.28
2022-08-22T08:21:54.322Z,4.23
2022-08-22T08:24:31.517Z,4.30
2022-08-22T08:27:30.539Z,4.20
2022-08-22T08:30:03.933Z,4.07
2022-08-22T08:32:37.363Z,3.70
2022-08-22T08:35:10.866Z,4.72
2022-08-22T08:37:46.081Z,4.35
2022-08-22T08:40:27.731Z,3.90
2022-08-22T08:43:24.351Z,3.97
2022-08-22T08:46:28.051Z,4.03
2022-08-22T08:49:12.732Z,4.90
2022-08-22T08:52:06.144Z,4.10
2022-08-22T08:54:51.618Z,4.50
2022-08-22T08:57:36.635Z,4.20
2022-08-22T09:00:14.873Z,4.18
2022-08-22T09:02:56.869Z,4.78
2022-08-22T09:06:01.171Z,4.47
2022-08-22T09:08:56.228Z,4.07
2022-08-22T09:11:47.995Z,4.00
2022-08-22T09:14:35.670Z,4.40
2022-08-22T09:17:37.488Z,4.00
2022-08-22T09:20:47.484Z,4.13
2022-08-22T09:23:53.772Z,4.40
2022-08-22T09:26:30.976Z,4.32
2022-08-22T09:29:35.361Z,4.55
2022-08-22T09:32:35.704Z,3.92
2022-08-22T09:35:15.326Z,4.30
2022-08-22T09:38:23.293Z,4.72
2022-08-22T09:41:02.410Z,4.50
2022-08-22T09:43:45.142Z,4.20
2022-08-22T09:46:22.714Z,4.57
2022-08-22T09:49:14.852Z,4.22
2022-08-22T09:51:56.928Z,4.13
2022-08-22T09:54:33.816Z,4.00
2022-08-22T09:57:14.064Z,4.28
2022-08-22T09:59:58.174Z,3.72
2022-08-22T10:02:36.623Z,3.60
2022-08-22T10:05:40.494Z,3.70
2022-08-22T10:08:34.753Z,3.70
2022-08-22T10:11:25.860Z,4.05
2022-08-22T10:14:02.390Z,4.10
2022-08-22T10:16:56.333Z,3.80
2022-08-22T10:19:31.995Z,3.35
2022-08-22T10:22:30.247Z,3.63
2022-08-22T10:25:34.432Z,3.28
2022-08-22T10:28:22.887Z,3.33
2022-08-22T10:31:03.240Z,3.55
2022-08-22T10:33:37.958Z,3.50
2022-08-22T10:36:13.734Z,3.67
2022-08-22T10:41:30.487Z,3.83
2022-08-22T10:44:07.545Z,2.95
2022-08-22T10:46:46.473Z,3.60
2022-08-22T10:49:28.753Z,3.15
2022-08-22T10:52:15.678Z,3.00
2022-08-22T10:54:52.907Z,3.15
2022-08-22T10:57:50.725Z,3.08
2022-08-22T11:00:37.809Z,3.38
2022-08-22T11:03:23.468Z,2.88
2022-08-22T11:05:57.587Z,2.97
2022-08-22T11:08:47.589Z,2.60
2022-08-22T11:11:39.137Z,3.33
2022-08-22T11:14:28.925Z,2.95
2022-08-22T11:17:11.976Z,3.10
2022-08-22T11:20:11.731Z,2.85
2022-08-22T11:22:50.178Z,2.92
2022-08-22T11:25:46.223Z,2.60
2022-08-22T11:29:12.309Z,2.75
2022-08-22T11:31:52.371Z,2.13
2022-08-22T11:34:36.690Z,2.30
2022-08-22T11:37:12.212Z,2.40
2022-08-22T11:39:48.752Z,2.38
2022-08-22T11:42:25.256Z,2.72
2022-08-22T11:45:04.528Z,2.78
2022-08-22T11:47:39.357Z,2.53
2022-08-22T11:50:19.066Z,2.72
2022-08-22T11:53:07.719Z,2.03
2022-08-22T11:55:42.575Z,2.92
2022-08-22T11:58:29.400Z,3.15
2022-08-22T12:01:06.397Z,3.05
2022-08-22T12:04:18.548Z,2.92
2022-08-22T12:07:04.264Z,2.55
2022-08-22T12:09:51.501Z,2.55
2022-08-22T12:12:34.852Z,2.78
2022-08-22T12:15:13.948Z,2.30
2022-08-22T12:18:14.359Z,2.65
2022-08-22T12:21:12.938Z,2.30
2022-08-22T12:24:21.157Z,2.80
2022-08-22T12:27:07.927Z,2.67
2022-08-22T12:29:46.904Z,2.53
2022-08-22T12:32:44.077Z,3.00
2022-08-22T12:35:31.448Z,2.90
2022-08-22T12:38:28.870Z,2.60
2022-08-22T12:41:28.020Z,2.50
2022-08-22T12:44:20.552Z,3.10
2022-08-22T12:47:06.554Z,3.08
2022-08-22T12:49:56.587Z,2.50
2022-08-22T12:52:45.605Z,2.67
2022-08-22T12:55:34.297Z,2.55
2022-08-22T12:58:11.578Z,2.40
2022-08-22T13:00:45.206Z,2.90
2022-08-22T13:03:25.939Z,2.50
2022-08-22T13:05:57.203Z,2.40
2022-08-22T13:08:37.280Z,2.50
2022-08-22T13:11:22.260Z,2.42
2022-08-22T13:13:57.301Z,2.65
2022-08-22T13:16:29.070Z,2.47
2022-08-22T13:19:07.702Z,2.95
2022-08-22T13:21:45.147Z,2.50
2022-08-22T13:24:22.769Z,2.92
2022-08-22T13:27:16.514Z,2.50
2022-08-22T13:29:57.094Z,2.67
2022-08-22T13:32:33.436Z,2.58
2022-08-22T13:35:05.428Z,2.67
2022-08-22T13:37:40.684Z,2.53
2022-08-22T13:40:24.442Z,2.63
2022-08-22T13:43:03.247Z,2.30
2022-08-22T13:45:35.267Z,2.67
2022-08-22T13:48:11.615Z,2.65
2022-08-22T13:50:59.172Z,2.47
2022-08-22T13:53:37.965Z,2.70
2022-08-22T13:56:16.485Z,2.38
2022-08-22T13:58:49.530Z,2.47
2022-08-22T14:01:41.722Z,2.50
2022-08-22T14:04:33.449Z,2.55
2022-08-22T14:07:26.375Z,2.60
2022-08-22T14:09:58.986Z,2.50
2022-08-22T14:12:50.087Z,2.40
2022-08-22T14:15:25.823Z,2.50
2022-08-22T14:18:11.789Z,2.88
2022-08-22T14:20:43.438Z,2.80
2022-08-22T14:23:18.892Z,2.72
2022-08-22T14:25:54.897Z,2.50
2022-08-22T14:28:32.154Z,2.60
2022-08-22T14:31:13.241Z,2.65
2022-08-22T14:33:49.609Z,2.53
2022-08-22T14:36:22.901Z,2.70
2022-08-22T14:38:57.134Z,2.38
2022-08-22T14:44:28.275Z,2.55
2022-08-22T14:47:02.217Z,2.67
2022-08-22T14:49:49.676Z,2.28
2022-08-22T14:52:40.746Z,3.00
2022-08-22T14:55:21.550Z,2.80
2022-08-22T14:57:59.985Z,2.50
2022-08-22T15:00:40.065Z,2.60
2022-08-22T15:03:23.286Z,2.30
2022-08-22T15:05:56.619Z,2.75
2022-08-22T15:08:32.384Z,2.53
2022-08-22T15:11:22.953Z,2.47
2022-08-22T15:13:57.957Z,2.70
2022-08-22T15:16:34.806Z,2.20
2022-08-22T15:19:21.789Z,2.80
2022-08-22T15:21:52.770Z,3.10
2022-08-22T15:24:24.089Z,2.75
2022-08-22T15:26:57.447Z,3.25
2022-08-22T15:29:31.088Z,2.60
2022-08-22T15:32:06.361Z,3.25
2022-08-22T15:34:39.014Z,2.78
2022-08-22T15:37:33.122Z,2.72
2022-08-22T15:40:13.104Z,2.80
2022-08-22T15:42:47.221Z,2.72
2022-08-22T15:45:33.885Z,2.30
2022-08-22T15:48:10.856Z,2.97
2022-08-22T15:50:44.159Z,2.60
2022-08-22T15:53:21.870Z,2.40
2022-08-22T15:56:29.584Z,2.90
2022-08-22T15:59:54.151Z,2.60
2022-08-22T16:02:30.501Z,2.88
2022-08-22T16:05:28.743Z,2.70
2022-08-22T16:08:07.513Z,2.65
2022-08-22T16:10:42.110Z,2.90
2022-08-22T16:13:16.225Z,2.35
2022-08-22T16:16:01.528Z,2.50
2022-08-22T16:19:01.456Z,2.35
2022-08-22T16:22:01.874Z,2.70
2022-08-22T16:24:56.840Z,2.58
2022-08-22T16:27:28.570Z,2.38
2022-08-22T16:30:15.483Z,2.72
2022-08-22T16:32:58.764Z,2.60
2022-08-22T16:35:58.690Z,2.67
2022-08-22T16:38:38.173Z,2.60
2022-08-22T16:41:30.264Z,2.42
2022-08-22T16:44:35.604Z,2.55
2022-08-22T16:47:20.479Z,2.60
2022-08-22T16:50:04.966Z,2.78
2022-08-22T16:52:57.322Z,2.40
2022-08-22T16:56:05.241Z,2.22
2022-08-22T16:59:22.073Z,2.92
2022-08-22T17:02:20.258Z,2.65
2022-08-22T17:05:05.368Z,3.25
2022-08-22T17:07:49.974Z,2.40
2022-08-22T17:10:37.310Z,1.98
2022-08-22T17:13:28.864Z,2.38
2022-08-22T17:16:29.340Z,2.17
2022-08-22T17:19:13.988Z,2.30
2022-08-22T17:21:52.017Z,2.75
2022-08-22T17:24:34.418Z,2.67
2022-08-22T17:27:10.475Z,2.60
2022-08-22T17:29:56.161Z,2.30
2022-08-22T17:32:37.900Z,2.58
2022-08-22T17:35:27.622Z,2.40
2022-08-22T17:38:08.992Z,2.25
2022-08-22T17:40:54.402Z,2.47
2022-08-22T17:43:48.498Z,2.75
2022-08-22T17:46:33.886Z,2.17
2022-08-22T17:49:19.658Z,2.30
2022-08-22T17:51:56.205Z,2.42
2022-08-22T17:54:35.277Z,2.30
2022-08-22T17:57:10.010Z,2.55
2022-08-22T17:59:50.357Z,2.90
2022-08-22T18:02:26.525Z,2.25
2022-08-22T18:05:08.901Z,2.67
2022-08-22T18:07:55.993Z,2.50
2022-08-22T18:10:34.782Z,2.78
2022-08-22T18:13:09.869Z,2.50
2022-08-22T18:15:47.633Z,2.65
2022-08-22T18:18:31.426Z,2.45
2022-08-22T18:21:10.978Z,2.30
2022-08-22T18:23:46.590Z,2.58
2022-08-22T18:26:27.245Z,2.28
2022-08-22T18:29:02.885Z,2.55
2022-08-22T18:31:48.488Z,2.50
2022-08-22T18:34:29.856Z,2.83
2022-08-22T18:37:08.625Z,2.60
2022-08-22T18:39:48.373Z,3.88
2022-08-22T18:42:28.463Z,2.80
2022-08-22T18:44:58.738Z,3.33
2022-08-22T18:47:32.768Z,2.55
2022-08-22T18:52:44.382Z,4.20
2022-08-22T18:55:33.805Z,4.55
2022-08-22T18:58:22.161Z,2.90
2022-08-22T19:01:11.053Z,2.40
2022-08-22T19:03:57.079Z,2.53
2022-08-22T19:06:43.305Z,2.70
2022-08-22T19:09:44.372Z,2.83
2022-08-22T19:12:28.459Z,4.32
2022-08-22T19:15:17.741Z,2.70
2022-08-22T19:18:06.861Z,2.80
2022-08-22T19:20:52.533Z,2.97
2022-08-22T19:23:49.033Z,3.28
2022-08-22T19:26:31.330Z,2.78
2022-08-22T19:29:07.693Z,2.70
2022-08-22T19:31:50.801Z,2.92
2022-08-22T19:34:37.959Z,2.50
2022-08-22T19:37:34.101Z,2.45
2022-08-22T19:40:07.193Z,3.28
2022-08-22T19:42:43.182Z,2.97
2022-08-22T19:45:26.598Z,2.72
2022-08-22T19:48:02.016Z,3.03
2022-08-22T19:50:37.339Z,2.60
2022-08-22T19:53:29.371Z,2.70
2022-08-22T19:56:09.600Z,2.55
2022-08-22T19:59:01.975Z,2.63
2022-08-22T20:01:45.558Z,2.50
2022-08-22T20:04:42.027Z,2.50
2022-08-22T20:07:23.208Z,2.50
2022-08-22T20:10:04.309Z,2.05
2022-08-22T20:12:42.332Z,2.45
2022-08-22T20:15:22.010Z,3.05
2022-08-22T20:21:01.410Z,2.17
2022-08-22T20:23:34.150Z,2.70
2022-08-22T20:26:04.187Z,2.53
2022-08-22T20:28:46.969Z,2.40
2022-08-22T20:31:26.983Z,3.35
2022-08-22T20:34:03.205Z,3.25
2022-08-22T20:36:34.097Z,3.08
2022-08-22T20:39:09.698Z,3.97
2022-08-22T20:41:41.833Z,2.40
2022-08-22T20:44:17.227Z,2.80
2022-08-22T20:46:57.548Z,2.92
2022-08-22T20:49:31.541Z,2.35
2022-08-22T20:52:04.426Z,2.90
2022-08-22T20:54:37.984Z,2.33
2022-08-22T20:57:17.004Z,2.33
2022-08-22T20:59:55.228Z,2.10
2022-08-22T21:02:31.758Z,2.13
2022-08-22T21:05:04.787Z,2.42
2022-08-22T21:07:36.644Z,2.45
2022-08-22T21:10:22.959Z,2.25
2022-08-22T21:13:10.546Z,2.45
2022-08-22T21:15:44.163Z,2.42
2022-08-22T21:18:26.524Z,2.40
2022-08-22T21:20:56.833Z,2.50
2022-08-22T21:23:26.680Z,2.33
2022-08-22T21:26:00.122Z,2.80
2022-08-22T21:28:32.748Z,2.75
2022-08-22T21:31:10.078Z,2.63
2022-08-22T21:33:46.601Z,2.20
2022-08-22T21:36:20.156Z,2.53
2022-08-22T21:38:54.997Z,2.38
2022-08-22T21:41:30.311Z,2.78
2022-08-22T21:44:21.143Z,2.50
2022-08-22T21:46:52.432Z,2.70
2022-08-22T21:49:29.319Z,2.90
2022-08-22T21:51:59.541Z,2.28
2022-08-22T21:54:42.632Z,2.58
2022-08-22T21:57:35.485Z,2.67
2022-08-22T22:00:11.032Z,2.42
2022-08-22T22:02:43.871Z,1.95
2022-08-22T22:05:23.815Z,2.20
2022-08-22T22:07:53.630Z,2.47
2022-08-22T22:10:25.921Z,2.70
2022-08-22T22:12:58.635Z,1.95
2022-08-22T22:15:31.888Z,2.60
2022-08-22T22:18:01.865Z,2.30
2022-08-22T22:20:34.645Z,2.55
2022-08-22T22:23:04.629Z,2.00
2022-08-22T22:25:39.541Z,2.40
2022-08-22T22:28:15.396Z,1.85
2022-08-22T22:30:50.357Z,2.30
2022-08-22T22:33:20.448Z,2.10
2022-08-22T22:35:53.999Z,2.22
2022-08-22T22:38:24.629Z,2.38
2022-08-22T22:40:55.109Z,2.08
2022-08-22T22:43:25.013Z,2.00
2022-08-22T22:45:54.921Z,2.33
2022-08-22T22:48:26.662Z,2.20
2022-08-22T22:50:59.086Z,2.50
2022-08-22T22:53:38.568Z,2.13
2022-08-22T22:56:10.099Z,2.40
2022-08-22T22:58:42.301Z,2.58
2022-08-22T23:01:14.187Z,2.30
2022-08-22T23:03:44.799Z,2.40
2022-08-22T23:06:19.710Z,2.40
2022-08-22T23:08:50.552Z,2.47
2022-08-22T23:11:24.717Z,2.35
2022-08-22T23:13:55.201Z,1.95
2022-08-22T23:16:27.929Z,2.67
2022-08-22T23:18:58.918Z,2.50
2022-08-22T23:21:32.908Z,2.38
2022-08-22T23:24:03.391Z,2.58
2022-08-22T23:26:33.473Z,2.55
2022-08-22T23:29:06.743Z,2.38
2022-08-22T23:31:39.061Z,2.70
2022-08-22T23:34:11.563Z,2.30
2022-08-22T23:36:46.310Z,2.42
2022-08-22T23:39:17.530Z,2.30
2022-08-22T23:41:48.367Z,2.50
2022-08-22T23:44:19.861Z,2.55
2022-08-22T23:46:50.047Z,2.53
2022-08-22T23:49:20.823Z,2.33
2022-08-22T23:51:53.903Z,2.40
2022-08-22T23:54:24.491Z,2.42
2022-08-22T23:56:56.633Z,2.50
2022-08-22T23:59:30.624Z,2.67
